sensor_id;sensor_type;location;lat;lon;timestamp;temperature;humidity
11128;DHT22;5618;51.028;5.234;2022-09-27T00:01:59;10.80;99.90
11128;DHT22;5618;51.028;5.234;2022-09-27T00:04:25;10.80;99.90
11128;DHT22;5618;51.028;5.234;2022-09-27T00:06:52;10.80;99.90
11128;DHT22;5618;51.028;5.234;2022-09-27T00:09:18;10.90;99.90
11128;DHT22;5618;51.028;5.234;2022-09-27T00:11:43;10.90;99.90
11128;DHT22;5618;51.028;5.234;2022-09-27T00:14:11;10.80;99.90
11128;DHT22;5618;51.028;5.234;2022-09-27T00:16:39;10.70;99.90
11128;DHT22;5618;51.028;5.234;2022-09-27T00:19:09;10.70;99.90
11128;DHT22;5618;51.028;5.234;2022-09-27T00:21:35;10.70;99.90
11128;DHT22;5618;51.028;5.234;2022-09-27T00:24:01;10.60;99.90
11128;DHT22;5618;51.028;5.234;2022-09-27T00:26:27;10.60;99.90
11128;DHT22;5618;51.028;5.234;2022-09-27T00:28:52;10.60;99.90
11128;DHT22;5618;51.028;5.234;2022-09-27T00:31:20;10.60;99.90
11128;DHT22;5618;51.028;5.234;2022-09-27T00:33:48;10.60;99.90
11128;DHT22;5618;51.028;5.234;2022-09-27T00:36:15;10.70;99.90
11128;DHT22;5618;51.028;5.234;2022-09-27T00:38:41;10.60;99.90
11128;DHT22;5618;51.028;5.234;2022-09-27T00:41:16;10.50;99.90
11128;DHT22;5618;51.028;5.234;2022-09-27T00:43:48;10.60;99.90
11128;DHT22;5618;51.028;5.234;2022-09-27T00:46:22;10.80;99.90
11128;DHT22;5618;51.028;5.234;2022-09-27T00:49:01;11.10;99.90
11128;DHT22;5618;51.028;5.234;2022-09-27T00:51:27;11.00;99.90
11128;DHT22;5618;51.028;5.234;2022-09-27T00:53:54;11.00;99.90
11128;DHT22;5618;51.028;5.234;2022-09-27T00:56:25;11.20;99.90
11128;DHT22;5618;51.028;5.234;2022-09-27T00:58:58;11.30;99.90
11128;DHT22;5618;51.028;5.234;2022-09-27T01:01:26;11.40;99.90
11128;DHT22;5618;51.028;5.234;2022-09-27T01:04:21;11.40;99.90
11128;DHT22;5618;51.028;5.234;2022-09-27T01:06:49;11.50;99.90
11128;DHT22;5618;51.028;5.234;2022-09-27T01:09:15;11.50;99.90
11128;DHT22;5618;51.028;5.234;2022-09-27T01:22:29;11.00;99.90
11128;DHT22;5618;51.028;5.234;2022-09-27T01:31:33;10.80;99.90
11128;DHT22;5618;51.028;5.234;2022-09-27T01:33:45;10.80;99.90
11128;DHT22;5618;51.028;5.234;2022-09-27T01:43:52;10.30;99.90
11128;DHT22;5618;51.028;5.234;2022-09-27T01:46:25;10.30;99.90
11128;DHT22;5618;51.028;5.234;2022-09-27T01:48:53;10.30;99.90
11128;DHT22;5618;51.028;5.234;2022-09-27T01:51:24;10.30;99.90
11128;DHT22;5618;51.028;5.234;2022-09-27T01:53:54;10.30;99.90
11128;DHT22;5618;51.028;5.234;2022-09-27T01:56:40;10.30;99.90
11128;DHT22;5618;51.028;5.234;2022-09-27T01:59:30;10.20;99.90
11128;DHT22;5618;51.028;5.234;2022-09-27T02:02:01;10.20;99.90
11128;DHT22;5618;51.028;5.234;2022-09-27T02:04:31;10.20;99.90
11128;DHT22;5618;51.028;5.234;2022-09-27T02:07:04;10.20;99.90
11128;DHT22;5618;51.028;5.234;2022-09-27T02:09:48;10.20;99.90
11128;DHT22;5618;51.028;5.234;2022-09-27T02:12:20;10.00;99.90
11128;DHT22;5618;51.028;5.234;2022-09-27T02:14:54;10.10;99.90
11128;DHT22;5618;51.028;5.234;2022-09-27T02:20:15;10.10;99.90
11128;DHT22;5618;51.028;5.234;2022-09-27T02:25:59;10.20;99.90
11128;DHT22;5618;51.028;5.234;2022-09-27T02:28:30;10.20;99.90
11128;DHT22;5618;51.028;5.234;2022-09-27T02:30:57;10.20;99.90
11128;DHT22;5618;51.028;5.234;2022-09-27T02:33:51;10.40;99.90
11128;DHT22;5618;51.028;5.234;2022-09-27T02:36:19;10.30;99.90
11128;DHT22;5618;51.028;5.234;2022-09-27T02:38:45;10.20;99.90
11128;DHT22;5618;51.028;5.234;2022-09-27T02:41:17;10.20;99.90
11128;DHT22;5618;51.028;5.234;2022-09-27T02:43:46;10.00;99.90
11128;DHT22;5618;51.028;5.234;2022-09-27T02:48:51;10.10;99.90
11128;DHT22;5618;51.028;5.234;2022-09-27T02:51:39;10.00;99.90
11128;DHT22;5618;51.028;5.234;2022-09-27T02:59:42;10.00;99.90
11128;DHT22;5618;51.028;5.234;2022-09-27T03:02:32;10.10;99.90
11128;DHT22;5618;51.028;5.234;2022-09-27T03:05:09;10.30;99.90
11128;DHT22;5618;51.028;5.234;2022-09-27T03:07:38;10.50;99.90
11128;DHT22;5618;51.028;5.234;2022-09-27T03:10:05;10.50;99.90
11128;DHT22;5618;51.028;5.234;2022-09-27T03:12:31;10.50;99.90
11128;DHT22;5618;51.028;5.234;2022-09-27T03:14:59;10.50;99.90
11128;DHT22;5618;51.028;5.234;2022-09-27T03:17:25;10.60;99.90
11128;DHT22;5618;51.028;5.234;2022-09-27T03:19:51;10.50;99.90
11128;DHT22;5618;51.028;5.234;2022-09-27T03:22:17;10.70;99.90
11128;DHT22;5618;51.028;5.234;2022-09-27T03:24:43;10.70;99.90
11128;DHT22;5618;51.028;5.234;2022-09-27T03:27:10;10.90;99.90
11128;DHT22;5618;51.028;5.234;2022-09-27T03:29:36;10.80;99.90
11128;DHT22;5618;51.028;5.234;2022-09-27T03:32:02;10.70;99.90
11128;DHT22;5618;51.028;5.234;2022-09-27T03:34:28;10.70;99.90
11128;DHT22;5618;51.028;5.234;2022-09-27T03:36:54;10.80;99.90
11128;DHT22;5618;51.028;5.234;2022-09-27T03:39:20;10.70;99.90
11128;DHT22;5618;51.028;5.234;2022-09-27T03:41:46;10.50;99.90
11128;DHT22;5618;51.028;5.234;2022-09-27T03:44:11;10.40;99.90
11128;DHT22;5618;51.028;5.234;2022-09-27T03:46:37;10.50;99.90
11128;DHT22;5618;51.028;5.234;2022-09-27T03:49:03;10.40;99.90
11128;DHT22;5618;51.028;5.234;2022-09-27T03:51:28;10.30;99.90
11128;DHT22;5618;51.028;5.234;2022-09-27T03:53:54;10.40;99.90
11128;DHT22;5618;51.028;5.234;2022-09-27T03:56:20;10.40;99.90
11128;DHT22;5618;51.028;5.234;2022-09-27T03:58:45;10.30;99.90
11128;DHT22;5618;51.028;5.234;2022-09-27T04:01:12;10.20;99.90
11128;DHT22;5618;51.028;5.234;2022-09-27T04:03:38;10.10;99.90
11128;DHT22;5618;51.028;5.234;2022-09-27T04:06:04;10.10;99.90
11128;DHT22;5618;51.028;5.234;2022-09-27T04:08:29;10.10;99.90
11128;DHT22;5618;51.028;5.234;2022-09-27T04:10:55;10.10;99.90
11128;DHT22;5618;51.028;5.234;2022-09-27T04:13:22;10.00;99.90
11128;DHT22;5618;51.028;5.234;2022-09-27T04:15:47;10.00;99.90
11128;DHT22;5618;51.028;5.234;2022-09-27T04:18:13;9.90;99.90
11128;DHT22;5618;51.028;5.234;2022-09-27T04:20:39;9.80;99.90
11128;DHT22;5618;51.028;5.234;2022-09-27T04:23:05;9.70;99.90
11128;DHT22;5618;51.028;5.234;2022-09-27T04:25:31;9.80;99.90
11128;DHT22;5618;51.028;5.234;2022-09-27T04:27:59;9.80;99.90
11128;DHT22;5618;51.028;5.234;2022-09-27T04:30:26;10.00;99.90
11128;DHT22;5618;51.028;5.234;2022-09-27T04:32:52;10.00;99.90
11128;DHT22;5618;51.028;5.234;2022-09-27T04:35:18;9.80;99.90
11128;DHT22;5618;51.028;5.234;2022-09-27T04:38:02;9.80;99.90
11128;DHT22;5618;51.028;5.234;2022-09-27T04:40:28;9.70;99.90
11128;DHT22;5618;51.028;5.234;2022-09-27T04:42:54;9.70;99.90
11128;DHT22;5618;51.028;5.234;2022-09-27T04:45:19;9.80;99.90
11128;DHT22;5618;51.028;5.234;2022-09-27T04:47:47;9.80;99.90
11128;DHT22;5618;51.028;5.234;2022-09-27T04:50:14;9.80;99.90
11128;DHT22;5618;51.028;5.234;2022-09-27T04:52:40;9.80;99.90
11128;DHT22;5618;51.028;5.234;2022-09-27T04:55:07;9.80;99.90
11128;DHT22;5618;51.028;5.234;2022-09-27T04:57:33;9.90;99.90
11128;DHT22;5618;51.028;5.234;2022-09-27T04:59:59;9.80;99.90
11128;DHT22;5618;51.028;5.234;2022-09-27T05:02:27;9.90;99.90
11128;DHT22;5618;51.028;5.234;2022-09-27T05:04:54;9.80;99.90
11128;DHT22;5618;51.028;5.234;2022-09-27T05:07:22;9.90;99.90
11128;DHT22;5618;51.028;5.234;2022-09-27T05:09:48;9.90;99.90
11128;DHT22;5618;51.028;5.234;2022-09-27T05:12:13;9.90;99.90
11128;DHT22;5618;51.028;5.234;2022-09-27T05:14:39;9.90;99.90
11128;DHT22;5618;51.028;5.234;2022-09-27T05:17:05;10.00;99.90
11128;DHT22;5618;51.028;5.234;2022-09-27T05:19:33;10.10;99.90
11128;DHT22;5618;51.028;5.234;2022-09-27T05:21:59;10.10;99.90
11128;DHT22;5618;51.028;5.234;2022-09-27T05:24:25;10.00;99.90
11128;DHT22;5618;51.028;5.234;2022-09-27T05:26:53;10.10;99.90
11128;DHT22;5618;51.028;5.234;2022-09-27T05:29:19;10.10;99.90
11128;DHT22;5618;51.028;5.234;2022-09-27T05:31:45;10.30;99.90
11128;DHT22;5618;51.028;5.234;2022-09-27T05:34:12;10.10;99.90
11128;DHT22;5618;51.028;5.234;2022-09-27T05:36:38;10.00;99.90
11128;DHT22;5618;51.028;5.234;2022-09-27T05:39:04;9.90;99.90
11128;DHT22;5618;51.028;5.234;2022-09-27T05:41:29;10.00;99.90
11128;DHT22;5618;51.028;5.234;2022-09-27T05:43:57;10.00;99.90
11128;DHT22;5618;51.028;5.234;2022-09-27T05:46:23;10.00;99.90
11128;DHT22;5618;51.028;5.234;2022-09-27T05:48:49;9.90;99.90
11128;DHT22;5618;51.028;5.234;2022-09-27T05:51:14;9.80;99.90
11128;DHT22;5618;51.028;5.234;2022-09-27T05:53:40;9.70;99.90
11128;DHT22;5618;51.028;5.234;2022-09-27T05:56:06;9.60;99.90
11128;DHT22;5618;51.028;5.234;2022-09-27T05:58:31;9.70;99.90
11128;DHT22;5618;51.028;5.234;2022-09-27T06:00:58;9.60;99.90
11128;DHT22;5618;51.028;5.234;2022-09-27T06:03:24;9.60;99.90
11128;DHT22;5618;51.028;5.234;2022-09-27T06:05:50;9.60;99.90
11128;DHT22;5618;51.028;5.234;2022-09-27T06:08:15;9.60;99.90
11128;DHT22;5618;51.028;5.234;2022-09-27T06:10:41;9.60;99.90
11128;DHT22;5618;51.028;5.234;2022-09-27T06:13:12;9.70;99.90
11128;DHT22;5618;51.028;5.234;2022-09-27T06:15:40;9.70;99.90
11128;DHT22;5618;51.028;5.234;2022-09-27T06:18:11;9.70;99.90
11128;DHT22;5618;51.028;5.234;2022-09-27T06:20:38;9.70;99.90
11128;DHT22;5618;51.028;5.234;2022-09-27T06:23:05;9.80;99.90
11128;DHT22;5618;51.028;5.234;2022-09-27T06:25:32;9.80;99.90
11128;DHT22;5618;51.028;5.234;2022-09-27T06:27:58;9.80;99.90
11128;DHT22;5618;51.028;5.234;2022-09-27T06:30:23;9.80;99.90
11128;DHT22;5618;51.028;5.234;2022-09-27T06:32:58;9.80;99.90
11128;DHT22;5618;51.028;5.234;2022-09-27T06:35:25;9.80;99.90
11128;DHT22;5618;51.028;5.234;2022-09-27T06:37:51;9.90;99.90
11128;DHT22;5618;51.028;5.234;2022-09-27T06:40:18;10.00;99.90
11128;DHT22;5618;51.028;5.234;2022-09-27T06:42:44;10.10;99.90
11128;DHT22;5618;51.028;5.234;2022-09-27T06:45:10;10.00;99.90
11128;DHT22;5618;51.028;5.234;2022-09-27T06:47:36;9.90;99.90
11128;DHT22;5618;51.028;5.234;2022-09-27T06:50:03;9.90;99.90
11128;DHT22;5618;51.028;5.234;2022-09-27T06:52:32;10.00;99.90
11128;DHT22;5618;51.028;5.234;2022-09-27T06:54:58;10.10;99.90
11128;DHT22;5618;51.028;5.234;2022-09-27T06:57:23;10.10;99.90
11128;DHT22;5618;51.028;5.234;2022-09-27T07:00:10;10.10;99.90
11128;DHT22;5618;51.028;5.234;2022-09-27T07:02:48;10.20;99.90
11128;DHT22;5618;51.028;5.234;2022-09-27T07:05:15;10.30;99.90
11128;DHT22;5618;51.028;5.234;2022-09-27T07:07:41;10.10;99.90
11128;DHT22;5618;51.028;5.234;2022-09-27T07:10:09;10.00;99.90
11128;DHT22;5618;51.028;5.234;2022-09-27T07:12:35;10.20;99.90
11128;DHT22;5618;51.028;5.234;2022-09-27T07:15:02;10.20;99.90
11128;DHT22;5618;51.028;5.234;2022-09-27T07:17:27;10.30;99.90
11128;DHT22;5618;51.028;5.234;2022-09-27T07:19:54;10.40;99.90
11128;DHT22;5618;51.028;5.234;2022-09-27T07:22:20;10.40;99.90
11128;DHT22;5618;51.028;5.234;2022-09-27T07:24:46;10.50;99.90
11128;DHT22;5618;51.028;5.234;2022-09-27T07:27:12;10.50;99.90
11128;DHT22;5618;51.028;5.234;2022-09-27T07:29:37;10.50;99.90
11128;DHT22;5618;51.028;5.234;2022-09-27T07:32:03;10.60;99.90
11128;DHT22;5618;51.028;5.234;2022-09-27T07:34:29;10.80;99.90
11128;DHT22;5618;51.028;5.234;2022-09-27T07:36:58;10.70;99.90
11128;DHT22;5618;51.028;5.234;2022-09-27T07:39:25;10.70;99.90
11128;DHT22;5618;51.028;5.234;2022-09-27T07:41:50;10.50;99.90
11128;DHT22;5618;51.028;5.234;2022-09-27T07:44:17;10.40;99.90
11128;DHT22;5618;51.028;5.234;2022-09-27T07:46:42;10.50;99.90
11128;DHT22;5618;51.028;5.234;2022-09-27T07:49:08;10.50;99.90
11128;DHT22;5618;51.028;5.234;2022-09-27T07:51:34;10.50;99.90
11128;DHT22;5618;51.028;5.234;2022-09-27T07:53:59;10.50;99.90
11128;DHT22;5618;51.028;5.234;2022-09-27T07:56:28;10.60;99.90
11128;DHT22;5618;51.028;5.234;2022-09-27T07:58:54;10.70;99.90
11128;DHT22;5618;51.028;5.234;2022-09-27T08:01:20;10.60;99.90
11128;DHT22;5618;51.028;5.234;2022-09-27T08:03:45;10.50;99.90
11128;DHT22;5618;51.028;5.234;2022-09-27T08:06:11;10.60;99.90
11128;DHT22;5618;51.028;5.234;2022-09-27T08:08:38;10.50;99.90
11128;DHT22;5618;51.028;5.234;2022-09-27T08:11:14;10.40;99.90
11128;DHT22;5618;51.028;5.234;2022-09-27T08:13:44;10.30;99.90
11128;DHT22;5618;51.028;5.234;2022-09-27T08:16:10;10.20;99.90
11128;DHT22;5618;51.028;5.234;2022-09-27T08:18:36;10.20;99.90
11128;DHT22;5618;51.028;5.234;2022-09-27T08:21:02;10.20;99.90
11128;DHT22;5618;51.028;5.234;2022-09-27T08:23:29;10.30;99.90
11128;DHT22;5618;51.028;5.234;2022-09-27T08:25:55;10.40;99.90
11128;DHT22;5618;51.028;5.234;2022-09-27T08:28:27;10.50;99.90
11128;DHT22;5618;51.028;5.234;2022-09-27T08:30:52;10.50;99.90
11128;DHT22;5618;51.028;5.234;2022-09-27T08:33:18;10.50;99.90
11128;DHT22;5618;51.028;5.234;2022-09-27T08:35:44;10.50;99.90
11128;DHT22;5618;51.028;5.234;2022-09-27T08:38:10;10.50;99.90
11128;DHT22;5618;51.028;5.234;2022-09-27T08:48:56;10.70;99.90
11128;DHT22;5618;51.028;5.234;2022-09-27T08:51:27;10.60;99.90
11128;DHT22;5618;51.028;5.234;2022-09-27T08:54:12;10.70;99.90
11128;DHT22;5618;51.028;5.234;2022-09-27T08:56:40;10.60;99.90
11128;DHT22;5618;51.028;5.234;2022-09-27T08:59:17;10.70;99.90
11128;DHT22;5618;51.028;5.234;2022-09-27T09:01:49;11.10;99.90
11128;DHT22;5618;51.028;5.234;2022-09-27T09:04:25;11.20;99.90
11128;DHT22;5618;51.028;5.234;2022-09-27T09:15:57;11.10;99.90
11128;DHT22;5618;51.028;5.234;2022-09-27T09:32:27;11.00;99.90
11128;DHT22;5618;51.028;5.234;2022-09-27T09:35:04;11.20;99.90
11128;DHT22;5618;51.028;5.234;2022-09-27T09:37:35;11.30;99.90
11128;DHT22;5618;51.028;5.234;2022-09-27T09:42:51;11.50;99.90
11128;DHT22;5618;51.028;5.234;2022-09-27T09:48:10;11.60;99.90
11128;DHT22;5618;51.028;5.234;2022-09-27T09:50:46;11.70;99.90
11128;DHT22;5618;51.028;5.234;2022-09-27T09:58:43;11.00;99.90
11128;DHT22;5618;51.028;5.234;2022-09-27T10:01:35;10.80;99.90
11128;DHT22;5618;51.028;5.234;2022-09-27T10:04:02;10.90;99.90
11128;DHT22;5618;51.028;5.234;2022-09-27T10:06:29;11.00;99.90
11128;DHT22;5618;51.028;5.234;2022-09-27T10:08:55;10.90;99.90
11128;DHT22;5618;51.028;5.234;2022-09-27T10:11:26;11.00;99.90
11128;DHT22;5618;51.028;5.234;2022-09-27T10:13:54;11.10;99.90
11128;DHT22;5618;51.028;5.234;2022-09-27T10:16:22;11.20;99.90
11128;DHT22;5618;51.028;5.234;2022-09-27T10:18:54;11.30;99.90
11128;DHT22;5618;51.028;5.234;2022-09-27T10:21:25;11.30;99.90
11128;DHT22;5618;51.028;5.234;2022-09-27T10:24:05;11.20;99.90
11128;DHT22;5618;51.028;5.234;2022-09-27T10:26:33;11.30;99.90
11128;DHT22;5618;51.028;5.234;2022-09-27T10:31:46;11.00;99.90
11128;DHT22;5618;51.028;5.234;2022-09-27T10:34:32;10.90;99.90
11128;DHT22;5618;51.028;5.234;2022-09-27T10:37:19;10.90;99.90
11128;DHT22;5618;51.028;5.234;2022-09-27T10:39:47;11.10;99.90
11128;DHT22;5618;51.028;5.234;2022-09-27T10:42:34;11.40;99.90
11128;DHT22;5618;51.028;5.234;2022-09-27T10:45:21;11.20;99.90
11128;DHT22;5618;51.028;5.234;2022-09-27T10:47:49;11.30;99.90
11128;DHT22;5618;51.028;5.234;2022-09-27T10:50:19;11.30;99.90
11128;DHT22;5618;51.028;5.234;2022-09-27T10:52:48;11.20;99.90
11128;DHT22;5618;51.028;5.234;2022-09-27T10:55:26;11.20;99.90
11128;DHT22;5618;51.028;5.234;2022-09-27T10:57:53;11.10;99.90
11128;DHT22;5618;51.028;5.234;2022-09-27T11:00:25;11.20;99.90
11128;DHT22;5618;51.028;5.234;2022-09-27T11:03:00;11.00;99.90
11128;DHT22;5618;51.028;5.234;2022-09-27T11:05:33;10.90;99.90
11128;DHT22;5618;51.028;5.234;2022-09-27T11:08:01;11.00;99.90
11128;DHT22;5618;51.028;5.234;2022-09-27T11:16:02;11.70;99.90
11128;DHT22;5618;51.028;5.234;2022-09-27T11:24:18;11.80;99.90
11128;DHT22;5618;51.028;5.234;2022-09-27T11:29:47;11.80;99.90
11128;DHT22;5618;51.028;5.234;2022-09-27T11:32:26;11.90;99.90
11128;DHT22;5618;51.028;5.234;2022-09-27T11:37:50;12.30;99.90
11128;DHT22;5618;51.028;5.234;2022-09-27T11:46:33;12.40;99.90
11128;DHT22;5618;51.028;5.234;2022-09-27T11:54:37;12.90;99.90
11128;DHT22;5618;51.028;5.234;2022-09-27T12:04:55;12.70;99.90
11128;DHT22;5618;51.028;5.234;2022-09-27T12:08:04;12.50;99.90
11128;DHT22;5618;51.028;5.234;2022-09-27T12:10:30;12.30;99.90
11128;DHT22;5618;51.028;5.234;2022-09-27T12:12:58;12.30;99.90
11128;DHT22;5618;51.028;5.234;2022-09-27T12:15:31;12.50;99.90
11128;DHT22;5618;51.028;5.234;2022-09-27T12:18:28;12.50;99.90
11128;DHT22;5618;51.028;5.234;2022-09-27T12:21:00;12.50;99.90
11128;DHT22;5618;51.028;5.234;2022-09-27T12:24:18;12.50;99.90
11128;DHT22;5618;51.028;5.234;2022-09-27T12:26:43;12.30;99.90
11128;DHT22;5618;51.028;5.234;2022-09-27T12:29:25;12.30;99.90
11128;DHT22;5618;51.028;5.234;2022-09-27T12:37:24;11.90;99.90
11128;DHT22;5618;51.028;5.234;2022-09-27T12:40:39;11.50;99.90
11128;DHT22;5618;51.028;5.234;2022-09-27T12:42:51;11.40;99.90
11128;DHT22;5618;51.028;5.234;2022-09-27T12:50:53;11.40;99.90
11128;DHT22;5618;51.028;5.234;2022-09-27T12:53:21;11.50;99.90
11128;DHT22;5618;51.028;5.234;2022-09-27T12:56:05;11.80;99.90
11128;DHT22;5618;51.028;5.234;2022-09-27T13:06:55;12.10;99.90
11128;DHT22;5618;51.028;5.234;2022-09-27T13:12:26;11.80;99.90
11128;DHT22;5618;51.028;5.234;2022-09-27T13:25:54;11.20;99.90
11128;DHT22;5618;51.028;5.234;2022-09-27T13:31:01;11.80;99.90
11128;DHT22;5618;51.028;5.234;2022-09-27T13:41:29;12.70;99.90
11128;DHT22;5618;51.028;5.234;2022-09-27T13:44:23;12.80;99.90
11128;DHT22;5618;51.028;5.234;2022-09-27T13:47:14;12.90;99.90
11128;DHT22;5618;51.028;5.234;2022-09-27T13:49:43;12.90;99.90
11128;DHT22;5618;51.028;5.234;2022-09-27T13:52:33;13.00;99.90
11128;DHT22;5618;51.028;5.234;2022-09-27T13:55:17;12.90;99.90
11128;DHT22;5618;51.028;5.234;2022-09-27T13:58:00;12.90;99.90
11128;DHT22;5618;51.028;5.234;2022-09-27T14:00:37;12.90;99.90
11128;DHT22;5618;51.028;5.234;2022-09-27T14:03:26;13.00;99.90
11128;DHT22;5618;51.028;5.234;2022-09-27T14:05:56;13.00;99.90
11128;DHT22;5618;51.028;5.234;2022-09-27T14:10:49;13.10;99.90
11128;DHT22;5618;51.028;5.234;2022-09-27T14:13:18;13.30;99.90
11128;DHT22;5618;51.028;5.234;2022-09-27T14:15:45;13.30;99.90
11128;DHT22;5618;51.028;5.234;2022-09-27T14:18:11;13.50;99.90
11128;DHT22;5618;51.028;5.234;2022-09-27T14:20:44;13.70;99.90
11128;DHT22;5618;51.028;5.234;2022-09-27T14:23:21;13.60;99.90
11128;DHT22;5618;51.028;5.234;2022-09-27T14:25:49;13.60;99.90
11128;DHT22;5618;51.028;5.234;2022-09-27T14:28:29;13.70;99.90
11128;DHT22;5618;51.028;5.234;2022-09-27T14:31:15;13.60;99.90
11128;DHT22;5618;51.028;5.234;2022-09-27T14:33:43;13.70;99.90
11128;DHT22;5618;51.028;5.234;2022-09-27T14:36:38;13.50;99.90
11128;DHT22;5618;51.028;5.234;2022-09-27T14:39:31;12.60;99.90
11128;DHT22;5618;51.028;5.234;2022-09-27T14:42:01;12.10;99.90
11128;DHT22;5618;51.028;5.234;2022-09-27T14:44:28;11.90;99.90
11128;DHT22;5618;51.028;5.234;2022-09-27T14:47:18;12.00;99.90
11128;DHT22;5618;51.028;5.234;2022-09-27T14:49:49;12.00;99.90
11128;DHT22;5618;51.028;5.234;2022-09-27T14:52:26;12.10;99.90
11128;DHT22;5618;51.028;5.234;2022-09-27T14:55:04;12.10;99.90
11128;DHT22;5618;51.028;5.234;2022-09-27T14:57:31;12.20;99.90
11128;DHT22;5618;51.028;5.234;2022-09-27T15:00:14;12.10;99.90
11128;DHT22;5618;51.028;5.234;2022-09-27T15:02:41;12.00;99.90
11128;DHT22;5618;51.028;5.234;2022-09-27T15:05:15;11.90;99.90
11128;DHT22;5618;51.028;5.234;2022-09-27T15:07:46;11.80;99.90
11128;DHT22;5618;51.028;5.234;2022-09-27T15:10:18;11.70;99.90
11128;DHT22;5618;51.028;5.234;2022-09-27T15:12:47;11.80;99.90
11128;DHT22;5618;51.028;5.234;2022-09-27T15:15:15;11.90;99.90
11128;DHT22;5618;51.028;5.234;2022-09-27T15:17:45;11.90;99.90
11128;DHT22;5618;51.028;5.234;2022-09-27T15:20:30;11.70;99.90
11128;DHT22;5618;51.028;5.234;2022-09-27T15:23:00;11.70;99.90
11128;DHT22;5618;51.028;5.234;2022-09-27T15:25:37;11.70;99.90
11128;DHT22;5618;51.028;5.234;2022-09-27T15:28:12;11.70;99.90
11128;DHT22;5618;51.028;5.234;2022-09-27T15:30:42;11.60;99.90
11128;DHT22;5618;51.028;5.234;2022-09-27T15:33:19;11.60;99.90
11128;DHT22;5618;51.028;5.234;2022-09-27T15:35:57;11.60;99.90
11128;DHT22;5618;51.028;5.234;2022-09-27T15:38:25;11.60;99.90
11128;DHT22;5618;51.028;5.234;2022-09-27T15:43:26;11.80;99.90
11128;DHT22;5618;51.028;5.234;2022-09-27T15:45:59;11.90;99.90
11128;DHT22;5618;51.028;5.234;2022-09-27T15:48:31;12.20;99.90
11128;DHT22;5618;51.028;5.234;2022-09-27T15:50:59;12.30;99.90
11128;DHT22;5618;51.028;5.234;2022-09-27T15:56:01;12.60;99.90
11128;DHT22;5618;51.028;5.234;2022-09-27T15:58:28;12.70;99.90
11128;DHT22;5618;51.028;5.234;2022-09-27T16:00:57;12.60;99.90
11128;DHT22;5618;51.028;5.234;2022-09-27T16:03:24;12.40;99.90
11128;DHT22;5618;51.028;5.234;2022-09-27T16:05:51;12.40;99.90
11128;DHT22;5618;51.028;5.234;2022-09-27T16:08:17;12.40;99.90
11128;DHT22;5618;51.028;5.234;2022-09-27T16:10:49;12.50;99.90
11128;DHT22;5618;51.028;5.234;2022-09-27T16:13:15;12.40;99.90
11128;DHT22;5618;51.028;5.234;2022-09-27T16:15:40;12.40;99.90
11128;DHT22;5618;51.028;5.234;2022-09-27T16:18:06;12.30;99.90
11128;DHT22;5618;51.028;5.234;2022-09-27T16:20:32;12.40;99.90
11128;DHT22;5618;51.028;5.234;2022-09-27T16:22:58;12.60;99.90
11128;DHT22;5618;51.028;5.234;2022-09-27T16:25:24;12.30;99.90
11128;DHT22;5618;51.028;5.234;2022-09-27T16:27:50;12.20;99.90
11128;DHT22;5618;51.028;5.234;2022-09-27T16:30:17;12.10;99.90
11128;DHT22;5618;51.028;5.234;2022-09-27T16:32:47;11.80;99.90
11128;DHT22;5618;51.028;5.234;2022-09-27T16:35:15;11.70;99.90
11128;DHT22;5618;51.028;5.234;2022-09-27T16:37:41;11.70;99.90
11128;DHT22;5618;51.028;5.234;2022-09-27T16:40:08;11.90;99.90
11128;DHT22;5618;51.028;5.234;2022-09-27T16:42:36;11.90;99.90
11128;DHT22;5618;51.028;5.234;2022-09-27T16:45:03;12.10;99.90
11128;DHT22;5618;51.028;5.234;2022-09-27T16:47:29;12.10;99.90
11128;DHT22;5618;51.028;5.234;2022-09-27T16:49:54;12.10;99.90
11128;DHT22;5618;51.028;5.234;2022-09-27T16:52:39;12.00;99.90
11128;DHT22;5618;51.028;5.234;2022-09-27T16:55:06;12.10;99.90
11128;DHT22;5618;51.028;5.234;2022-09-27T16:57:32;12.10;99.90
11128;DHT22;5618;51.028;5.234;2022-09-27T16:59:59;12.10;99.90
11128;DHT22;5618;51.028;5.234;2022-09-27T17:02:25;12.20;99.90
11128;DHT22;5618;51.028;5.234;2022-09-27T17:04:51;12.30;99.90
11128;DHT22;5618;51.028;5.234;2022-09-27T17:07:18;12.30;99.90
11128;DHT22;5618;51.028;5.234;2022-09-27T17:09:44;12.30;99.90
11128;DHT22;5618;51.028;5.234;2022-09-27T17:12:10;12.20;99.90
11128;DHT22;5618;51.028;5.234;2022-09-27T17:14:36;12.10;99.90
11128;DHT22;5618;51.028;5.234;2022-09-27T17:17:02;12.00;99.90
11128;DHT22;5618;51.028;5.234;2022-09-27T17:19:27;11.90;99.90
11128;DHT22;5618;51.028;5.234;2022-09-27T17:21:53;11.70;99.90
11128;DHT22;5618;51.028;5.234;2022-09-27T17:24:22;11.80;99.90
11128;DHT22;5618;51.028;5.234;2022-09-27T17:26:48;11.90;99.90
11128;DHT22;5618;51.028;5.234;2022-09-27T17:29:14;11.90;99.90
11128;DHT22;5618;51.028;5.234;2022-09-27T17:31:40;11.80;99.90
11128;DHT22;5618;51.028;5.234;2022-09-27T17:34:07;11.90;99.90
11128;DHT22;5618;51.028;5.234;2022-09-27T17:36:37;11.90;99.90
11128;DHT22;5618;51.028;5.234;2022-09-27T17:39:04;12.10;99.90
11128;DHT22;5618;51.028;5.234;2022-09-27T17:41:30;12.10;99.90
11128;DHT22;5618;51.028;5.234;2022-09-27T17:43:59;12.20;99.90
11128;DHT22;5618;51.028;5.234;2022-09-27T17:46:32;12.10;99.90
11128;DHT22;5618;51.028;5.234;2022-09-27T17:48:58;12.10;99.90
11128;DHT22;5618;51.028;5.234;2022-09-27T17:51:46;12.20;99.90
11128;DHT22;5618;51.028;5.234;2022-09-27T17:54:13;12.10;99.90
11128;DHT22;5618;51.028;5.234;2022-09-27T17:56:40;12.00;99.90
11128;DHT22;5618;51.028;5.234;2022-09-27T17:59:08;11.70;99.90
11128;DHT22;5618;51.028;5.234;2022-09-27T18:01:34;11.60;99.90
11128;DHT22;5618;51.028;5.234;2022-09-27T18:04:04;11.70;99.90
11128;DHT22;5618;51.028;5.234;2022-09-27T18:06:30;11.80;99.90
11128;DHT22;5618;51.028;5.234;2022-09-27T18:08:56;11.90;99.90
11128;DHT22;5618;51.028;5.234;2022-09-27T18:11:24;12.00;99.90
11128;DHT22;5618;51.028;5.234;2022-09-27T18:13:54;12.10;99.90
11128;DHT22;5618;51.028;5.234;2022-09-27T18:16:21;12.10;99.90
11128;DHT22;5618;51.028;5.234;2022-09-27T18:18:52;11.90;99.90
11128;DHT22;5618;51.028;5.234;2022-09-27T18:21:18;11.80;99.90
11128;DHT22;5618;51.028;5.234;2022-09-27T18:23:48;11.80;99.90
11128;DHT22;5618;51.028;5.234;2022-09-27T18:26:16;11.80;99.90
11128;DHT22;5618;51.028;5.234;2022-09-27T18:28:42;11.80;99.90
11128;DHT22;5618;51.028;5.234;2022-09-27T18:31:11;11.70;99.90
11128;DHT22;5618;51.028;5.234;2022-09-27T18:33:37;11.50;99.90
11128;DHT22;5618;51.028;5.234;2022-09-27T18:36:06;11.40;99.90
11128;DHT22;5618;51.028;5.234;2022-09-27T18:38:32;11.30;99.90
11128;DHT22;5618;51.028;5.234;2022-09-27T18:41:25;11.20;99.90
11128;DHT22;5618;51.028;5.234;2022-09-27T18:43:53;11.00;99.90
11128;DHT22;5618;51.028;5.234;2022-09-27T18:46:22;11.00;99.90
11128;DHT22;5618;51.028;5.234;2022-09-27T18:48:49;10.80;99.90
11128;DHT22;5618;51.028;5.234;2022-09-27T18:51:16;10.70;99.90
11128;DHT22;5618;51.028;5.234;2022-09-27T18:53:42;10.60;99.90
11128;DHT22;5618;51.028;5.234;2022-09-27T18:56:14;10.60;99.90
11128;DHT22;5618;51.028;5.234;2022-09-27T18:58:40;10.50;99.90